Lisbon, IA (52253)

4:11 PM CDT on September 20, 2014 (GMT -0500)
KIALISBO2 | Change Station
CLOSE
Current Station
Personal Weather Station
Location: Lisbon, IA
Elevation: 856 ft
Nearby Weather Stations

Elev 856 ft 41.92 °N, 91.39 °W | Updated 14 minutes ago

Partly Cloudy
Partly Cloudy
81.1 °F
Feels Like 84 °F
N
4.2
Wind Variable Wind from SW

Today
High -- | Low -- °F
--% Chance of Precip.
Yesterday
High -- | Low -- °F
Precip. -- in
6:50 AM 7:06 PM
Waning Crescent, 10% visible
Pressure 29.82 in
Visibility 10.0 miles
Clouds Mostly Cloudy 2900 ft
Mostly Cloudy 3800 ft
Mostly Cloudy 5500 ft
Heat Index 84 °F
Dew Point 69 °F
Humidity 67%
Rainfall 0.09 in
Snow Depth Not available.
UV 2 out of 12
Pollen 4.60 out of 12
Air Quality Not available.
Flu Activity Not available.
METAR KCID 202052Z 23012KT 10SM BKN029 BKN038 BKN055 26/19 A2982

More Conditions Fewer Conditions

Pressure 29.82 in
Visibility 10.0 miles
Clouds Mostly Cloudy 2900 ft
Mostly Cloudy 3800 ft
Mostly Cloudy 5500 ft
Heat Index 84 °F
Dew Point 69 °F
Humidity 67%
Rainfall 0.09 in
Snow Depth Not available.
UV 2 out of 12
Pollen 4.60 out of 12
Air Quality Not available.
Flu Activity Not available.
METAR KCID 202052Z 23012KT 10SM BKN029 BKN038 BKN055 26/19 A2982

More Conditions Fewer Conditions

10-Day Weather Forecast

Almanac

Astronomy

Sep. 20, 2014 Rise Set
Actual Time 6:50 AM CDT 7:06 PM CDT
Civil Twilight 6:22 AM CDT 7:34 PM CDT
Nautical Twilight 5:50 AM CDT 8:06 PM CDT
Astronomical Twilight 5:16 AM CDT 8:40 PM CDT
Moon 3:27 AM CDT 5:11 PM CDT
Length of Visible Light 13h 11m
Length of Day
12h 15m
Tomorrow will be 2m 47s shorter.
Waning Crescent, 10% of the Moon is Illuminated
Today
Waning Crescent
Sep 24
New
Oct 1
First Quarter
Oct 8
Full
Oct 15
Last Quarter

Today's Extremes

State Highs State Lows

Community

WunderPhotos

Upload Photos

1,754,947 photos uploaded!

WunderBlogs® & News

Nearby

Snow Depth

Station Depth Elevation
No new snow has been reported.

Earthquake Activity

City Distance Mag. Time & Date
No recent earthquake activity has been reported nearby.
Minimum magnitude displayed is 2.5.

Coastal Water Temperatures

Place Temperature
No Stations Reporting

Nearby Weather Stations